createdAt,value
2022-12-12T00:01:26.335Z,101182.63
2022-12-12T00:03:57.548Z,101179.13
2022-12-12T00:06:25.363Z,101181.72
2022-12-12T00:08:56.263Z,101185.06
2022-12-12T00:11:29.660Z,101187.63
2022-12-12T00:13:57.821Z,101187.63
2022-12-12T00:16:25.993Z,101184.97
2022-12-12T00:18:54.139Z,101188.47
2022-12-12T00:21:24.989Z,101190.97
2022-12-12T00:23:52.676Z,101188.38
2022-12-12T00:26:26.811Z,101191.84
2022-12-12T00:28:55.598Z,101190.16
2022-12-12T00:31:22.941Z,101194.44
2022-12-12T00:33:51.721Z,101190.16
2022-12-12T00:36:23.903Z,101188.47
2022-12-12T00:38:52.872Z,101191.06
2022-12-12T00:41:21.127Z,101186.75
2022-12-12T00:43:48.803Z,101189.34
2022-12-12T00:46:19.488Z,101189.34
2022-12-12T00:48:47.080Z,101187.56
2022-12-12T00:51:18.483Z,101186.66
2022-12-12T00:53:46.726Z,101188.38
2022-12-12T00:56:18.665Z,101188.28
2022-12-12T00:58:46.745Z,101193.47
2022-12-12T01:01:27.134Z,101197.81
2022-12-12T01:03:56.885Z,101201.31
2022-12-12T01:06:24.567Z,101201.31
2022-12-12T01:08:53.262Z,101201.31
2022-12-12T01:11:21.529Z,101199.63
2022-12-12T01:13:51.565Z,101210.84
2022-12-12T01:16:19.065Z,101217.84
2022-12-12T01:18:47.300Z,101211.78
2022-12-12T01:21:16.512Z,101210.84
2022-12-12T01:23:43.816Z,101205.69
2022-12-12T01:26:14.575Z,101209.19
2022-12-12T01:28:43.127Z,101211.78
2022-12-12T01:31:10.947Z,101213.44
2022-12-12T01:33:38.683Z,101213.44
2022-12-12T01:36:06.733Z,101219.47
2022-12-12T01:38:34.122Z,101221.22
2022-12-12T01:41:01.373Z,101222.13
2022-12-12T01:43:28.912Z,101217.84
2022-12-12T01:46:02.780Z,101222.13
2022-12-12T01:48:47.441Z,101216.03
2022-12-12T01:51:18.523Z,101219.59
2022-12-12T01:53:47.479Z,101219.59
2022-12-12T01:56:19.397Z,101220.44
2022-12-12T01:58:51.112Z,101221.22
2022-12-12T02:01:20.583Z,101222.94
2022-12-12T02:03:49.381Z,101217.66
2022-12-12T02:06:22.382Z,101221.13
2022-12-12T02:08:55.308Z,101228.91
2022-12-12T02:11:22.660Z,101219.47
2022-12-12T02:13:51.113Z,101220.25
2022-12-12T02:16:36.992Z,101214.28
2022-12-12T02:19:23.044Z,101227.22
2022-12-12T02:22:04.907Z,101213.31
2022-12-12T02:24:38.155Z,101217.56
2022-12-12T02:27:14.276Z,101214.09
2022-12-12T02:29:46.955Z,101213.22
2022-12-12T02:32:25.226Z,101219.19
2022-12-12T02:35:17.315Z,101213.13
2022-12-12T02:38:05.216Z,101226.97
2022-12-12T02:40:47.687Z,101226.97
2022-12-12T02:43:44.470Z,101229.53
2022-12-12T02:46:19.846Z,101233.84
2022-12-12T02:49:11.669Z,101243.31
2022-12-12T02:51:40.552Z,101240.72
2022-12-12T02:54:14.594Z,101239.84
2022-12-12T02:56:45.599Z,101245.03
2022-12-12T02:59:31.938Z,101247.69
2022-12-12T03:02:21.277Z,101241.69
2022-12-12T03:05:22.513Z,101238.22
2022-12-12T03:08:09.248Z,101242.50
2022-12-12T03:11:03.792Z,101249.47
2022-12-12T03:13:34.690Z,101246.78
2022-12-12T03:16:19.124Z,101257.31
2022-12-12T03:19:04.772Z,101253.91
2022-12-12T03:21:50.799Z,101256.50
2022-12-12T03:24:21.034Z,101248.72
2022-12-12T03:27:06.122Z,101255.72
2022-12-12T03:29:43.935Z,101254.78
2022-12-12T03:32:17.253Z,101260.88
2022-12-12T03:35:07.567Z,101259.97
2022-12-12T03:37:43.406Z,101254.78
2022-12-12T03:40:20.275Z,101250.44
2022-12-12T03:43:03.386Z,101252.16
2022-12-12T03:45:47.795Z,101249.56
2022-12-12T03:48:29.798Z,101263.38
2022-12-12T03:51:07.643Z,101253.13
2022-12-12T03:54:07.892Z,101253.91
2022-12-12T03:56:40.547Z,101248.72
2022-12-12T03:59:33.279Z,101257.47
2022-12-12T04:02:10.728Z,101257.38
2022-12-12T04:04:55.271Z,101257.31
2022-12-12T04:07:32.558Z,101255.53
2022-12-12T04:10:18.447Z,101265.88
2022-12-12T04:13:00.813Z,101265.88
2022-12-12T04:15:50.019Z,101263.22
2022-12-12T04:18:44.305Z,101265.81
2022-12-12T04:21:59.894Z,101264.84
2022-12-12T04:24:51.218Z,101275.19
2022-12-12T04:27:29.081Z,101273.41
2022-12-12T04:30:05.832Z,101277.69
2022-12-12T04:32:45.647Z,101272.50
2022-12-12T04:35:15.846Z,101275.09
2022-12-12T04:37:55.799Z,101275.91
2022-12-12T04:40:30.450Z,101287.16
2022-12-12T04:43:06.009Z,101279.31
2022-12-12T04:45:38.443Z,101281.09
2022-12-12T04:48:09.667Z,101273.34
2022-12-12T04:50:38.826Z,101279.41
2022-12-12T04:53:16.540Z,101279.31
2022-12-12T04:55:55.766Z,101287.91
2022-12-12T04:58:24.425Z,101287.03
2022-12-12T05:01:10.042Z,101286.09
2022-12-12T05:04:02.110Z,101292.91
2022-12-12T05:06:37.746Z,101287.63
2022-12-12T05:09:07.711Z,101291.94
2022-12-12T05:11:35.518Z,101282.31
2022-12-12T05:14:03.194Z,101286.66
2022-12-12T05:16:36.082Z,101278.88
2022-12-12T05:19:05.602Z,101283.19
2022-12-12T05:21:32.909Z,101279.63
2022-12-12T05:24:00.258Z,101287.31
2022-12-12T05:26:36.122Z,101276.75
2022-12-12T05:29:07.557Z,101271.44
2022-12-12T05:31:36.056Z,101285.16
2022-12-12T05:34:04.217Z,101281.59
2022-12-12T05:36:37.641Z,101281.53
2022-12-12T05:39:04.936Z,101286.44
2022-12-12T05:41:32.267Z,101276.84
2022-12-12T05:43:59.566Z,101283.53
2022-12-12T05:46:26.887Z,101278.25
2022-12-12T05:48:55.127Z,101279.78
2022-12-12T05:51:22.599Z,101284.78
2022-12-12T05:53:50.306Z,101285.50
2022-12-12T05:56:20.692Z,101281.06
2022-12-12T05:58:48.088Z,101284.34
2022-12-12T06:01:15.464Z,101285.97
2022-12-12T06:03:43.577Z,101287.47
2022-12-12T06:06:10.911Z,101289.97
2022-12-12T06:08:39.489Z,101291.44
2022-12-12T06:11:08.155Z,101285.28
2022-12-12T06:13:35.550Z,101277.34
2022-12-12T06:16:17.972Z,101285.91
2022-12-12T06:18:50.315Z,101283.13
2022-12-12T06:21:18.293Z,101290.72
2022-12-12T06:23:47.600Z,101290.56
2022-12-12T06:26:17.322Z,101300.69
2022-12-12T06:28:44.679Z,101300.50
2022-12-12T06:31:12.900Z,101294.38
2022-12-12T06:33:42.964Z,101291.63
2022-12-12T06:36:19.317Z,101292.22
2022-12-12T06:38:48.919Z,101297.22
2022-12-12T06:41:17.417Z,101297.84
2022-12-12T06:43:44.994Z,101293.47
2022-12-12T06:46:24.212Z,101293.38
2022-12-12T06:48:55.770Z,101294.00
2022-12-12T06:51:26.488Z,101298.09
2022-12-12T06:53:55.970Z,101307.44
2022-12-12T06:56:25.246Z,101317.63
2022-12-12T06:58:53.893Z,101319.28
2022-12-12T07:01:22.901Z,101321.00
2022-12-12T07:03:52.258Z,101312.47
2022-12-12T07:06:21.764Z,101324.66
2022-12-12T07:08:49.977Z,101326.38
2022-12-12T07:11:23.444Z,101323.78
2022-12-12T07:13:52.063Z,101327.34
2022-12-12T07:16:20.094Z,101321.34
2022-12-12T07:18:48.082Z,101327.44
2022-12-12T07:21:18.091Z,101330.91
2022-12-12T07:23:45.763Z,101330.91
2022-12-12T07:26:17.846Z,101323.84
2022-12-12T07:28:45.767Z,101335.88
2022-12-12T07:31:16.260Z,101338.31
2022-12-12T07:33:45.027Z,101339.00
2022-12-12T07:36:15.330Z,101342.28
2022-12-12T07:38:44.760Z,101347.25
2022-12-12T07:41:16.301Z,101342.81
2022-12-12T07:43:51.122Z,101348.66
2022-12-12T07:46:21.442Z,101349.47
2022-12-12T07:48:49.189Z,101345.09
2022-12-12T07:51:17.225Z,101345.91
2022-12-12T07:53:44.819Z,101342.47
2022-12-12T07:56:14.219Z,101338.94
2022-12-12T07:58:41.988Z,101343.13
2022-12-12T08:01:21.407Z,101339.56
2022-12-12T08:03:49.736Z,101338.78
2022-12-12T08:06:19.311Z,101347.41
2022-12-12T08:08:51.361Z,101351.00
2022-12-12T08:11:21.933Z,101346.69
2022-12-12T08:13:49.632Z,101350.28
2022-12-12T08:16:24.178Z,101363.28
2022-12-12T08:18:57.566Z,101364.28
2022-12-12T08:21:26.719Z,101361.06
2022-12-12T08:23:57.348Z,101359.56
2022-12-12T08:26:26.178Z,101358.06
2022-12-12T08:28:54.008Z,101368.59
2022-12-12T08:31:25.313Z,101360.22
2022-12-12T08:33:56.829Z,101363.88
2022-12-12T08:36:26.976Z,101365.84
2022-12-12T08:38:57.118Z,101372.19
2022-12-12T08:41:25.406Z,101370.69
2022-12-12T08:43:53.415Z,101376.13
2022-12-12T08:46:22.114Z,101373.84
2022-12-12T08:48:49.666Z,101368.81
2022-12-12T08:51:17.663Z,101364.72
2022-12-12T08:53:47.022Z,101372.78
2022-12-12T08:56:15.421Z,101366.00
2022-12-12T08:58:44.179Z,101369.72
2022-12-12T09:01:20.427Z,101363.03
2022-12-12T09:03:48.309Z,101378.84
2022-12-12T09:06:18.411Z,101384.16
2022-12-12T09:08:47.229Z,101385.16
2022-12-12T09:11:14.597Z,101383.63
2022-12-12T09:13:41.897Z,101386.41
2022-12-12T09:16:11.084Z,101392.75
2022-12-12T09:18:44.581Z,101391.25
2022-12-12T09:21:15.388Z,101393.97
2022-12-12T09:23:44.660Z,101400.22
2022-12-12T09:26:12.141Z,101397.00
2022-12-12T09:28:41.004Z,101392.03
2022-12-12T09:31:10.742Z,101388.72
2022-12-12T09:33:39.287Z,101389.69
2022-12-12T09:36:08.853Z,101393.34
2022-12-12T09:38:36.736Z,101397.97
2022-12-12T09:41:10.113Z,101392.09
2022-12-12T09:43:45.703Z,101392.44
2022-12-12T09:46:28.136Z,101383.31
2022-12-12T09:49:20.581Z,101381.00
2022-12-12T09:51:50.813Z,101391.25
2022-12-12T09:54:21.291Z,101395.00
2022-12-12T09:57:20.014Z,101387.47
2022-12-12T10:00:10.449Z,101388.63
2022-12-12T10:02:47.957Z,101385.41
2022-12-12T10:05:32.186Z,101386.38
2022-12-12T10:08:30.057Z,101390.91
2022-12-12T10:11:08.670Z,101386.69
2022-12-12T10:13:37.147Z,101376.50
2022-12-12T10:16:15.233Z,101377.56
2022-12-12T10:18:48.006Z,101376.78
2022-12-12T10:21:24.690Z,101367.44
2022-12-12T10:24:15.949Z,101378.78
2022-12-12T10:26:43.471Z,101367.81
2022-12-12T10:29:16.734Z,101372.34
2022-12-12T10:31:50.261Z,101371.78
2022-12-12T10:34:31.369Z,101373.72
2022-12-12T10:37:29.486Z,101375.66
2022-12-12T10:39:59.751Z,101382.88
2022-12-12T10:42:53.842Z,101376.22
2022-12-12T10:45:33.067Z,101373.63
2022-12-12T10:48:01.440Z,101384.81
2022-12-12T10:50:34.006Z,101377.13
2022-12-12T10:53:03.586Z,101367.88
2022-12-12T10:55:47.828Z,101371.44
2022-12-12T10:58:17.198Z,101372.41
2022-12-12T11:00:47.072Z,101371.63
2022-12-12T11:03:22.319Z,101376.06
2022-12-12T11:05:49.803Z,101369.25
2022-12-12T11:08:27.843Z,101370.38
2022-12-12T11:11:19.795Z,101376.47
2022-12-12T11:13:52.278Z,101370.47
2022-12-12T11:16:25.739Z,101363.72
2022-12-12T11:19:07.067Z,101363.72
2022-12-12T11:21:37.342Z,101363.78
2022-12-12T11:24:10.986Z,101357.91
2022-12-12T11:26:42.983Z,101360.63
2022-12-12T11:29:29.973Z,101358.03
2022-12-12T11:31:59.794Z,101356.97
2022-12-12T11:34:28.945Z,101355.13
2022-12-12T11:36:59.543Z,101360.31
2022-12-12T11:39:39.841Z,101353.44
2022-12-12T11:42:22.896Z,101350.75
2022-12-12T11:45:05.754Z,101345.50
2022-12-12T11:47:55.885Z,101344.59
2022-12-12T11:50:28.619Z,101339.25
2022-12-12T11:53:03.318Z,101349.63
2022-12-12T11:55:57.759Z,101346.13
2022-12-12T11:58:33.016Z,101343.53
2022-12-12T12:01:12.966Z,101351.41
2022-12-12T12:03:58.502Z,101350.59
2022-12-12T12:06:43.010Z,101346.97
2022-12-12T12:09:13.280Z,101340.63
2022-12-12T12:12:04.399Z,101342.19
2022-12-12T12:15:09.642Z,101342.09
2022-12-12T12:18:10.719Z,101345.34
2022-12-12T12:20:40.906Z,101337.56
2022-12-12T12:23:21.483Z,101339.28
2022-12-12T12:26:19.327Z,101340.03
2022-12-12T12:29:18.648Z,101339.94
2022-12-12T12:31:52.081Z,101333.03
2022-12-12T12:34:28.333Z,101327.72
2022-12-12T12:37:34.281Z,101332.91
2022-12-12T12:40:04.461Z,101330.31
2022-12-12T12:42:52.711Z,101332.81
2022-12-12T12:45:49.283Z,101330.03
2022-12-12T12:48:22.680Z,101334.25
2022-12-12T12:51:04.739Z,101329.72
2022-12-12T12:53:43.598Z,101336.53
2022-12-12T12:56:30.086Z,101343.34
2022-12-12T12:59:01.989Z,101333.84
2022-12-12T13:01:38.167Z,101338.97
2022-12-12T13:04:17.246Z,101329.41
2022-12-12T13:06:55.946Z,101334.59
2022-12-12T13:09:44.637Z,101335.47
2022-12-12T13:12:25.258Z,101335.47
2022-12-12T13:14:58.436Z,101339.03
2022-12-12T13:17:46.819Z,101333.03
2022-12-12T13:20:21.922Z,101327.84
2022-12-12T13:23:15.638Z,101327.78
2022-12-12T13:25:57.437Z,101322.53
2022-12-12T13:28:34.940Z,101323.22
2022-12-12T13:31:40.040Z,101330.88
2022-12-12T13:34:17.254Z,101319.53
2022-12-12T13:36:51.731Z,101316.75
2022-12-12T13:39:25.133Z,101319.13
2022-12-12T13:42:05.038Z,101328.53
2022-12-12T13:44:47.314Z,101324.03
2022-12-12T13:47:23.879Z,101323.91
2022-12-12T13:50:24.541Z,101324.53
2022-12-12T13:53:06.843Z,101328.59
2022-12-12T13:55:35.481Z,101326.69
2022-12-12T13:58:17.259Z,101326.56
2022-12-12T14:00:44.918Z,101322.06
2022-12-12T14:03:13.500Z,101329.69
2022-12-12T14:05:43.572Z,101324.25
2022-12-12T14:08:10.821Z,101334.47
2022-12-12T14:10:45.744Z,101325.72
2022-12-12T14:13:16.081Z,101326.41
2022-12-12T14:15:47.443Z,101332.34
2022-12-12T14:18:28.487Z,101336.63
2022-12-12T14:21:08.364Z,101334.75
2022-12-12T14:23:43.978Z,101324.16
2022-12-12T14:26:29.760Z,101327.38
2022-12-12T14:29:18.815Z,101333.16
2022-12-12T14:31:53.313Z,101327.75
2022-12-12T14:34:52.334Z,101326.69
2022-12-12T14:37:32.468Z,101337.75
2022-12-12T14:40:02.316Z,101335.00
2022-12-12T14:43:21.067Z,101344.28
2022-12-12T14:45:30.249Z,101342.22
2022-12-12T14:48:32.093Z,101349.00
2022-12-12T14:51:25.837Z,101341.00
2022-12-12T14:53:58.016Z,101344.38
2022-12-12T14:56:29.838Z,101352.00
2022-12-12T14:59:07.645Z,101349.22
2022-12-12T15:01:35.108Z,101352.44
2022-12-12T15:04:12.508Z,101360.81
2022-12-12T15:06:44.222Z,101358.94
2022-12-12T15:09:29.394Z,101364.94
2022-12-12T15:12:11.447Z,101363.84
2022-12-12T15:14:49.074Z,101364.63
2022-12-12T15:17:19.940Z,101362.78
2022-12-12T15:19:48.740Z,101360.97
2022-12-12T15:22:24.770Z,101364.28
2022-12-12T15:24:54.048Z,101371.06
2022-12-12T15:27:55.372Z,101365.69
2022-12-12T15:30:34.155Z,101362.03
2022-12-12T15:33:04.551Z,101359.38
2022-12-12T15:35:32.122Z,101361.78
2022-12-12T15:38:01.759Z,101359.00
2022-12-12T15:40:30.201Z,101358.84
2022-12-12T15:43:05.863Z,101363.91
2022-12-12T15:45:37.828Z,101365.44
2022-12-12T15:48:15.624Z,101364.34
2022-12-12T15:50:46.349Z,101367.66
2022-12-12T15:53:24.431Z,101371.66
2022-12-12T15:56:00.817Z,101357.53
2022-12-12T15:58:35.981Z,101359.88
2022-12-12T16:01:20.844Z,101356.97
2022-12-12T16:04:00.414Z,101362.78
2022-12-12T16:06:32.850Z,101365.19
2022-12-12T16:09:07.867Z,101365.88
2022-12-12T16:11:58.168Z,101365.72
2022-12-12T16:14:40.101Z,101358.63
2022-12-12T16:17:26.018Z,101363.72
2022-12-12T16:20:05.719Z,101372.97
2022-12-12T16:22:32.956Z,101377.13
2022-12-12T16:25:24.074Z,101374.38
2022-12-12T16:28:11.007Z,101378.47
2022-12-12T16:30:40.805Z,101374.03
2022-12-12T16:33:35.165Z,101369.63
2022-12-12T16:36:08.108Z,101380.69
2022-12-12T16:38:35.969Z,101374.44
2022-12-12T16:41:07.973Z,101368.28
2022-12-12T16:43:35.245Z,101378.41
2022-12-12T16:46:02.696Z,101366.09
2022-12-12T16:48:35.742Z,101361.63
2022-12-12T16:51:08.997Z,101370.97
2022-12-12T16:53:36.796Z,101364.03
2022-12-12T16:56:04.806Z,101363.91
2022-12-12T16:58:33.066Z,101365.53
2022-12-12T17:01:01.844Z,101364.53
2022-12-12T17:03:32.956Z,101364.31
2022-12-12T17:06:00.667Z,101364.22
2022-12-12T17:08:28.658Z,101370.19
2022-12-12T17:11:10.477Z,101369.22
2022-12-12T17:13:44.478Z,101372.56
2022-12-12T17:16:12.120Z,101379.34
2022-12-12T17:18:39.584Z,101379.16
2022-12-12T17:21:06.974Z,101390.38
2022-12-12T17:23:34.354Z,101390.06
2022-12-12T17:26:04.621Z,101388.97
2022-12-12T17:28:35.500Z,101393.94
2022-12-12T17:31:07.508Z,101394.63
2022-12-12T17:33:35.153Z,101391.88
2022-12-12T17:36:06.411Z,101389.19
2022-12-12T17:38:41.847Z,101396.72
2022-12-12T17:41:10.978Z,101388.09
2022-12-12T17:43:38.336Z,101395.81
2022-12-12T17:46:08.286Z,101388.78
2022-12-12T17:48:36.073Z,101396.41
2022-12-12T17:51:05.987Z,101393.72
2022-12-12T17:53:38.051Z,101394.44
2022-12-12T17:56:10.574Z,101393.34
2022-12-12T17:58:40.889Z,101382.81
2022-12-12T18:01:24.106Z,101382.63
2022-12-12T18:03:51.631Z,101383.41
2022-12-12T18:06:21.253Z,101386.00
2022-12-12T18:08:50.041Z,101385.88
2022-12-12T18:11:24.523Z,101385.00
2022-12-12T18:13:55.931Z,101380.53
2022-12-12T18:16:24.716Z,101380.44
2022-12-12T18:18:52.283Z,101379.44
2022-12-12T18:21:51.634Z,101380.22
2022-12-12T18:24:11.384Z,101381.81
2022-12-12T18:26:38.744Z,101370.41
2022-12-12T18:29:07.686Z,101378.94
2022-12-12T18:31:36.254Z,101370.22
2022-12-12T18:34:04.032Z,101369.31
2022-12-12T18:36:32.388Z,101362.38
2022-12-12T18:39:01.942Z,101365.72
2022-12-12T18:41:31.424Z,101370.00
2022-12-12T18:44:02.780Z,101372.69
2022-12-12T18:46:38.745Z,101377.84
2022-12-12T18:49:15.823Z,101384.66
2022-12-12T18:51:48.493Z,101376.84
2022-12-12T18:54:16.689Z,101381.91
2022-12-12T18:56:47.373Z,101381.69
2022-12-12T18:59:15.786Z,101382.38
2022-12-12T19:01:44.238Z,101383.16
2022-12-12T19:04:17.751Z,101386.56
2022-12-12T19:06:50.172Z,101386.34
2022-12-12T19:09:19.555Z,101394.97
2022-12-12T19:11:53.244Z,101389.72
2022-12-12T19:14:24.514Z,101397.47
2022-12-12T19:16:52.052Z,101395.66
2022-12-12T19:19:20.128Z,101385.44
2022-12-12T19:21:48.175Z,101382.06
2022-12-12T19:24:15.691Z,101379.59
2022-12-12T19:26:47.753Z,101380.50
2022-12-12T19:29:18.667Z,101378.72
2022-12-12T19:31:46.701Z,101385.56
2022-12-12T19:34:16.170Z,101388.13
2022-12-12T19:36:44.449Z,101387.16
2022-12-12T19:39:12.827Z,101379.31
2022-12-12T19:41:40.882Z,101388.72
2022-12-12T19:44:12.705Z,101378.19
2022-12-12T19:46:42.720Z,101380.66
2022-12-12T19:49:13.221Z,101386.72
2022-12-12T19:51:44.744Z,101395.38
2022-12-12T19:54:19.223Z,101397.13
2022-12-12T19:56:47.895Z,101388.72
2022-12-12T19:59:18.103Z,101392.47
2022-12-12T20:01:47.280Z,101391.13
2022-12-12T20:04:20.158Z,101394.91
2022-12-12T20:06:49.369Z,101402.06
2022-12-12T20:09:19.235Z,101405.03
2022-12-12T20:11:49.266Z,101408.00
2022-12-12T20:14:24.028Z,101401.25
2022-12-12T20:16:55.551Z,101394.63
2022-12-12T20:19:26.914Z,101390.56
2022-12-12T20:22:01.301Z,101391.53
2022-12-12T20:24:30.321Z,101396.13
2022-12-12T20:26:59.403Z,101394.56
2022-12-12T20:29:27.561Z,101392.97
2022-12-12T20:31:56.643Z,101386.00
2022-12-12T20:34:24.906Z,101390.38
2022-12-12T20:36:55.104Z,101384.31
2022-12-12T20:39:25.194Z,101390.38
2022-12-12T20:41:56.018Z,101387.69
2022-12-12T20:44:25.772Z,101388.41
2022-12-12T20:46:55.891Z,101385.81
2022-12-12T20:49:24.605Z,101384.00
2022-12-12T20:51:56.809Z,101394.34
2022-12-12T20:54:26.357Z,101382.22
2022-12-12T20:56:56.621Z,101385.81
2022-12-12T20:59:25.852Z,101390.97
2022-12-12T21:01:55.618Z,101383.31
2022-12-12T21:04:24.321Z,101385.00
2022-12-12T21:06:52.069Z,101388.47
2022-12-12T21:09:25.588Z,101388.41
2022-12-12T21:11:56.094Z,101388.47
2022-12-12T21:14:25.465Z,101397.91
2022-12-12T21:16:53.364Z,101390.97
2022-12-12T21:19:22.265Z,101404.06
2022-12-12T21:21:50.414Z,101393.84
2022-12-12T21:24:18.232Z,101395.72
2022-12-12T21:26:51.980Z,101383.72
2022-12-12T21:29:19.557Z,101392.34
2022-12-12T21:31:52.535Z,101390.66
2022-12-12T21:34:22.002Z,101386.22
2022-12-12T21:36:58.185Z,101388.78
2022-12-12T21:39:28.913Z,101388.69
2022-12-12T21:41:56.443Z,101383.41
2022-12-12T21:44:23.993Z,101385.81
2022-12-12T21:46:51.732Z,101384.78
2022-12-12T21:49:28.329Z,101381.94
2022-12-12T21:52:00.920Z,101371.41
2022-12-12T21:54:29.950Z,101379.94
2022-12-12T21:57:01.057Z,101381.72
2022-12-12T21:59:29.312Z,101371.41
2022-12-12T22:01:59.110Z,101368.75
2022-12-12T22:04:26.801Z,101368.53
2022-12-12T22:06:55.595Z,101371.59
2022-12-12T22:09:23.525Z,101361.88
2022-12-12T22:11:52.166Z,101357.41
2022-12-12T22:14:30.657Z,101364.94
2022-12-12T22:16:58.008Z,101363.84
2022-12-12T22:19:25.540Z,101356.81
2022-12-12T22:21:52.782Z,101354.25
2022-12-12T22:24:20.103Z,101354.03
2022-12-12T22:26:51.426Z,101368.50
2022-12-12T22:29:20.239Z,101368.50
2022-12-12T22:31:50.518Z,101361.53
2022-12-12T22:34:23.885Z,101366.53
2022-12-12T22:36:52.730Z,101372.56
2022-12-12T22:39:23.550Z,101360.38
2022-12-12T22:41:51.846Z,101372.34
2022-12-12T22:44:21.679Z,101366.19
2022-12-12T22:46:51.638Z,101367.00
2022-12-12T22:49:22.486Z,101364.09
2022-12-12T22:51:50.130Z,101348.44
2022-12-12T22:54:18.389Z,101345.75
2022-12-12T22:56:46.447Z,101355.97
2022-12-12T22:59:14.682Z,101364.47
2022-12-12T23:01:42.814Z,101373.19
2022-12-12T23:04:14.525Z,101361.91
2022-12-12T23:06:43.259Z,101358.44
2022-12-12T23:09:20.597Z,101350.59
2022-12-12T23:11:49.594Z,101352.19
2022-12-12T23:14:21.767Z,101354.56
2022-12-12T23:16:50.505Z,101349.19
2022-12-12T23:19:20.778Z,101355.94
2022-12-12T23:21:48.041Z,101346.50
2022-12-12T23:24:16.184Z,101344.63
2022-12-12T23:26:44.312Z,101344.53
2022-12-12T23:29:16.306Z,101327.97
2022-12-12T23:31:43.934Z,101332.13
2022-12-12T23:34:20.834Z,101328.56
2022-12-12T23:36:52.399Z,101330.13
2022-12-12T23:39:20.155Z,101327.56
2022-12-12T23:41:47.885Z,101332.50
2022-12-12T23:44:17.359Z,101336.66
2022-12-12T23:46:46.612Z,101339.00
2022-12-12T23:49:22.232Z,101344.16
2022-12-12T23:51:57.255Z,101345.66
2022-12-12T23:54:35.011Z,101350.59
2022-12-12T23:57:03.284Z,101353.16
2022-12-12T23:59:30.791Z,101354.03
